Time;durP1;ratioP1;P1;durP2;ratioP2;P2;SDS_P1;SDS_P2;PMS_P1;PMS_P2;Temp;Humidity;BMP_temperature;BMP_pressure;BME280_temperature;BME280_humidity;BME280_pressure;Samples;Min_cycle;Max_cycle;Signal;HPM_P1;HPM_P2
2021/05/24 00:01:47;;;;;;;1.67;1.00;;;;;;;;;;5097013;28;20245;-82
2021/05/24 00:04:13;;;;;;;1.38;1.27;;;;;;;;;;5096483;28;20203;-82
2021/05/24 00:06:40;;;;;;;1.02;0.93;;;;;;;;;;5096303;28;20212;-82
2021/05/24 00:09:07;;;;;;;1.25;1.25;;;;;;;;;;5095828;28;20207;-82
2021/05/24 00:11:34;;;;;;;1.15;1.10;;;;;;;;;;5095972;28;20200;-82
2021/05/24 00:14:03;;;;;;;2.60;0.90;;;;;;;;;;5095895;28;20697;-82
2021/05/24 00:16:30;;;;;;;0.70;0.70;;;;;;;;;;5096569;28;20211;-82
2021/05/24 00:18:57;;;;;;;1.40;1.30;;;;;;;;;;5096003;28;20582;-81
2021/05/24 00:21:24;;;;;;;0.95;0.90;;;;;;;;;;5096322;28;20200;-82
2021/05/24 00:23:51;;;;;;;1.13;1.08;;;;;;;;;;5095623;28;20204;-81
2021/05/24 00:26:18;;;;;;;1.23;0.90;;;;;;;;;;5096256;28;20373;-82
2021/05/24 00:28:45;;;;;;;4.90;0.90;;;;;;;;;;5096020;28;20526;-81
2021/05/24 00:31:12;;;;;;;0.90;0.90;;;;;;;;;;5095711;28;20200;-82
2021/05/24 00:33:39;;;;;;;0.90;0.90;;;;;;;;;;5095883;28;20581;-82
2021/05/24 00:36:07;;;;;;;1.73;1.05;;;;;;;;;;5095442;28;20224;-82
2021/05/24 00:38:34;;;;;;;2.50;1.02;;;;;;;;;;5095714;28;20220;-81
2021/05/24 00:41:01;;;;;;;1.00;1.00;;;;;;;;;;5096228;28;20204;-82
2021/05/24 00:43:28;;;;;;;0.77;0.77;;;;;;;;;;5095926;28;20246;-82
2021/05/24 00:45:55;;;;;;;1.02;0.80;;;;;;;;;;5095455;28;20196;-82
2021/05/24 00:48:22;;;;;;;0.82;0.82;;;;;;;;;;5095518;28;20644;-82
2021/05/24 00:50:48;;;;;;;1.05;1.00;;;;;;;;;;5095229;28;20207;-82
2021/05/24 00:53:16;;;;;;;2.30;1.02;;;;;;;;;;5095479;28;20208;-82
2021/05/24 00:55:43;;;;;;;0.90;0.90;;;;;;;;;;5095352;28;20586;-82
2021/05/24 00:58:10;;;;;;;5.07;1.83;;;;;;;;;;5094492;28;20259;-81
2021/05/24 01:00:39;;;;;;;1.50;1.10;;;;;;;;;;5095147;28;20654;-82
2021/05/24 01:03:08;;;;;;;1.23;1.02;;;;;;;;;;5095271;28;20208;-82
2021/05/24 01:05:35;;;;;;;1.60;0.90;;;;;;;;;;5095161;28;20196;-82
2021/05/24 01:08:03;;;;;;;1.95;0.90;;;;;;;;;;5095048;28;20438;-81
2021/05/24 01:10:31;;;;;;;1.02;0.90;;;;;;;;;;5095452;28;20643;-82
2021/05/24 01:12:59;;;;;;;1.10;1.00;;;;;;;;;;5096628;28;20207;-82
2021/05/24 01:15:27;;;;;;;1.30;1.20;;;;;;;;;;5096195;28;20220;-82
2021/05/24 01:17:55;;;;;;;2.55;1.10;;;;;;;;;;5096596;28;20220;-82
2021/05/24 01:20:22;;;;;;;2.15;1.13;;;;;;;;;;5095346;28;20209;-82
2021/05/24 01:22:58;;;;;;;1.50;1.00;;;;;;;;;;5095804;28;20201;-82
2021/05/24 01:25:25;;;;;;;0.88;0.82;;;;;;;;;;5095476;28;20200;-82
2021/05/24 01:27:52;;;;;;;1.20;1.10;;;;;;;;;;5095031;28;20223;-82
2021/05/24 01:30:21;;;;;;;1.08;1.05;;;;;;;;;;5094939;28;20678;-82
2021/05/24 01:32:48;;;;;;;1.58;1.10;;;;;;;;;;5095018;28;20236;-82
2021/05/24 01:35:16;;;;;;;2.00;1.10;;;;;;;;;;5095211;28;20236;-82
2021/05/24 01:37:43;;;;;;;1.38;0.98;;;;;;;;;;5094849;28;20224;-82
2021/05/24 01:40:12;;;;;;;1.20;1.10;;;;;;;;;;5095099;28;20214;-82
2021/05/24 01:42:39;;;;;;;1.60;1.50;;;;;;;;;;5094509;28;20207;-82
2021/05/24 01:45:08;;;;;;;0.82;0.82;;;;;;;;;;5094462;28;20203;-82
2021/05/24 01:47:35;;;;;;;0.63;0.63;;;;;;;;;;5095168;28;20247;-82
2021/05/24 01:50:02;;;;;;;0.70;0.70;;;;;;;;;;5094952;28;20204;-82
2021/05/24 01:52:29;;;;;;;1.08;1.08;;;;;;;;;;5095151;28;20200;-82
2021/05/24 01:54:56;;;;;;;0.90;0.90;;;;;;;;;;5094776;28;20581;-82
2021/05/24 01:57:23;;;;;;;1.88;1.00;;;;;;;;;;5094816;28;20227;-82
2021/05/24 01:59:50;;;;;;;1.02;1.00;;;;;;;;;;5094809;28;20201;-81
2021/05/24 02:02:17;;;;;;;0.95;0.90;;;;;;;;;;5092987;28;20219;-81
2021/05/24 02:04:44;;;;;;;1.58;1.05;;;;;;;;;;5095898;28;20203;-81
2021/05/24 02:07:11;;;;;;;1.38;1.10;;;;;;;;;;5095909;28;20250;-82
2021/05/24 02:09:38;;;;;;;0.80;0.80;;;;;;;;;;5095852;28;20202;-81
2021/05/24 02:12:06;;;;;;;0.80;0.80;;;;;;;;;;5095662;28;20196;-81
2021/05/24 02:14:33;;;;;;;2.15;1.10;;;;;;;;;;5094876;28;20204;-81
2021/05/24 02:17:00;;;;;;;0.90;0.90;;;;;;;;;;5094667;28;20596;-82
2021/05/24 02:19:27;;;;;;;1.00;0.98;;;;;;;;;;5095826;28;20207;-82
2021/05/24 02:21:54;;;;;;;2.58;1.02;;;;;;;;;;5095257;28;20193;-81
2021/05/24 02:24:21;;;;;;;1.10;1.00;;;;;;;;;;5095154;28;20211;-82
2021/05/24 02:26:48;;;;;;;1.73;0.85;;;;;;;;;;5094777;28;20220;-81
2021/05/24 02:29:15;;;;;;;2.13;1.10;;;;;;;;;;5095404;28;20208;-82
2021/05/24 02:31:42;;;;;;;7.63;1.10;;;;;;;;;;5097029;28;20224;-82
2021/05/24 02:34:09;;;;;;;2.13;1.13;;;;;;;;;;5099239;28;20207;-82
2021/05/24 02:36:37;;;;;;;2.05;0.90;;;;;;;;;;5099011;28;20224;-81
2021/05/24 02:39:07;;;;;;;1.55;1.10;;;;;;;;;;5099009;28;20197;-81
2021/05/24 02:41:34;;;;;;;0.98;0.88;;;;;;;;;;5099489;28;20192;-81
2021/05/24 02:44:01;;;;;;;1.13;0.93;;;;;;;;;;5098858;28;20200;-81
2021/05/24 02:46:28;;;;;;;0.93;0.93;;;;;;;;;;5097384;28;20207;-81
2021/05/24 02:48:55;;;;;;;1.35;0.90;;;;;;;;;;5098178;28;20204;-81
2021/05/24 02:51:22;;;;;;;0.95;0.95;;;;;;;;;;5098807;28;20197;-81
2021/05/24 02:53:49;;;;;;;1.30;0.95;;;;;;;;;;5098363;28;20201;-82
2021/05/24 02:56:16;;;;;;;0.68;0.68;;;;;;;;;;5099185;28;20227;-81
2021/05/24 02:58:43;;;;;;;1.27;1.13;;;;;;;;;;5098381;28;20265;-81
2021/05/24 03:01:10;;;;;;;1.58;1.02;;;;;;;;;;5098860;28;20203;-81
2021/05/24 03:03:38;;;;;;;1.58;0.80;;;;;;;;;;5099003;28;20196;-81
2021/05/24 03:06:06;;;;;;;1.08;1.00;;;;;;;;;;5098655;28;20740;-81
2021/05/24 03:08:33;;;;;;;0.95;0.90;;;;;;;;;;5098128;28;20231;-81
2021/05/24 03:11:00;;;;;;;1.55;0.80;;;;;;;;;;5098596;28;20207;-81
2021/05/24 03:13:28;;;;;;;4.18;1.00;;;;;;;;;;5098993;28;20207;-82
2021/05/24 03:15:56;;;;;;;4.90;1.45;;;;;;;;;;5098951;28;20224;-81
2021/05/24 03:18:23;;;;;;;0.85;0.85;;;;;;;;;;5098973;28;20216;-81
2021/05/24 03:20:50;;;;;;;1.00;1.00;;;;;;;;;;5097939;28;20592;-81
2021/05/24 03:23:18;;;;;;;0.80;0.80;;;;;;;;;;5098746;28;20193;-81
2021/05/24 03:25:44;;;;;;;0.93;0.88;;;;;;;;;;5099291;28;20601;-81
2021/05/24 03:28:11;;;;;;;1.23;1.08;;;;;;;;;;5098390;28;20298;-81
2021/05/24 03:30:38;;;;;;;0.73;0.73;;;;;;;;;;5097567;28;20211;-81
2021/05/24 03:33:06;;;;;;;0.80;0.80;;;;;;;;;;5097883;28;20236;-81
2021/05/24 03:35:33;;;;;;;1.10;1.00;;;;;;;;;;5098150;28;20223;-81
2021/05/24 03:38:00;;;;;;;1.00;1.00;;;;;;;;;;5098293;28;20212;-80
2021/05/24 03:40:28;;;;;;;1.10;1.00;;;;;;;;;;5098460;28;20227;-81
2021/05/24 03:42:54;;;;;;;1.88;1.00;;;;;;;;;;5097836;28;20253;-81
2021/05/24 03:45:23;;;;;;;2.50;1.25;;;;;;;;;;5098412;28;20238;-82
2021/05/24 03:47:51;;;;;;;0.80;0.80;;;;;;;;;;5098032;28;20328;-82
2021/05/24 03:50:18;;;;;;;1.05;1.02;;;;;;;;;;5098230;28;20184;-82
2021/05/24 03:52:46;;;;;;;1.60;1.30;;;;;;;;;;5097737;28;20197;-82
2021/05/24 03:55:14;;;;;;;1.15;1.05;;;;;;;;;;5097861;28;20579;-81
2021/05/24 03:57:42;;;;;;;1.75;1.02;;;;;;;;;;5098099;28;20227;-82
2021/05/24 04:00:11;;;;;;;1.05;1.05;;;;;;;;;;5098196;28;20204;-81
2021/05/24 04:02:38;;;;;;;1.00;0.90;;;;;;;;;;5098267;28;20197;-82
2021/05/24 04:05:14;;;;;;;3.33;1.10;;;;;;;;;;5098201;28;20242;-82
2021/05/24 04:07:44;;;;;;;1.33;1.10;;;;;;;;;;5098535;28;20224;-81
2021/05/24 04:10:13;;;;;;;1.67;1.10;;;;;;;;;;5098164;28;20196;-82
2021/05/24 04:12:40;;;;;;;0.90;0.90;;;;;;;;;;5098113;28;20288;-81
2021/05/24 04:15:09;;;;;;;0.80;0.80;;;;;;;;;;5097078;28;20192;-81
2021/05/24 04:17:38;;;;;;;1.00;1.00;;;;;;;;;;5097305;28;20231;-81
2021/05/24 04:20:07;;;;;;;2.30;0.90;;;;;;;;;;5097590;28;20197;-82
2021/05/24 04:22:35;;;;;;;1.50;1.25;;;;;;;;;;5097611;28;20261;-82
2021/05/24 04:25:02;;;;;;;1.95;1.48;;;;;;;;;;5097901;28;20205;-82
2021/05/24 04:27:29;;;;;;;1.00;1.00;;;;;;;;;;5097427;28;20213;-82
2021/05/24 04:29:56;;;;;;;1.63;1.00;;;;;;;;;;5097375;28;20681;-82
2021/05/24 04:32:23;;;;;;;1.58;1.30;;;;;;;;;;5097681;28;20243;-82
2021/05/24 04:34:51;;;;;;;0.93;0.93;;;;;;;;;;5097588;28;20204;-82
2021/05/24 04:37:18;;;;;;;1.20;1.02;;;;;;;;;;5097762;28;20229;-82
2021/05/24 04:39:45;;;;;;;2.13;1.40;;;;;;;;;;5098120;28;20210;-82
2021/05/24 04:42:13;;;;;;;1.67;1.08;;;;;;;;;;5098043;28;20681;-82
2021/05/24 04:44:40;;;;;;;3.95;2.10;;;;;;;;;;5098439;28;20200;-83
2021/05/24 04:47:08;;;;;;;1.25;1.02;;;;;;;;;;5098026;28;20739;-83
2021/05/24 04:49:35;;;;;;;1.27;1.10;;;;;;;;;;5097936;28;20196;-83
2021/05/24 04:52:02;;;;;;;1.25;1.00;;;;;;;;;;5098300;28;20690;-83
2021/05/24 04:54:30;;;;;;;1.38;1.10;;;;;;;;;;5097580;28;20262;-83
2021/05/24 04:56:57;;;;;;;1.05;1.05;;;;;;;;;;5098158;28;20231;-82
2021/05/24 04:59:23;;;;;;;1.30;1.00;;;;;;;;;;5098004;28;20300;-83
2021/05/24 05:01:50;;;;;;;1.90;1.00;;;;;;;;;;5097427;28;20269;-82
2021/05/24 05:04:19;;;;;;;1.20;1.10;;;;;;;;;;5097496;28;20200;-82
2021/05/24 05:06:45;;;;;;;2.22;1.38;;;;;;;;;;5097540;28;20710;-83
2021/05/24 05:09:12;;;;;;;0.88;0.88;;;;;;;;;;5097346;28;20204;-83
2021/05/24 05:11:39;;;;;;;1.75;1.02;;;;;;;;;;5098092;28;20216;-82
2021/05/24 05:14:06;;;;;;;1.00;1.00;;;;;;;;;;5097178;28;20269;-83
2021/05/24 05:16:33;;;;;;;1.13;1.05;;;;;;;;;;5097479;28;20220;-83
2021/05/24 05:19:00;;;;;;;2.33;1.15;;;;;;;;;;5097062;28;20207;-83
2021/05/24 05:21:27;;;;;;;1.10;1.10;;;;;;;;;;5097301;28;20188;-83
2021/05/24 05:23:54;;;;;;;1.48;0.90;;;;;;;;;;5096891;28;20207;-82
2021/05/24 05:26:21;;;;;;;4.38;1.00;;;;;;;;;;5097018;28;20211;-83
2021/05/24 05:28:48;;;;;;;0.93;0.93;;;;;;;;;;5096979;28;20689;-83
2021/05/24 05:31:15;;;;;;;1.65;1.55;;;;;;;;;;5097302;28;20211;-83
2021/05/24 05:33:42;;;;;;;1.77;1.10;;;;;;;;;;5097175;28;20211;-83
2021/05/24 05:36:09;;;;;;;1.83;1.15;;;;;;;;;;5097221;28;20220;-83
2021/05/24 05:38:36;;;;;;;1.77;1.45;;;;;;;;;;5097181;28;20224;-83
2021/05/24 05:41:05;;;;;;;1.05;1.05;;;;;;;;;;5097159;28;20670;-84
2021/05/24 05:43:32;;;;;;;1.13;0.90;;;;;;;;;;5096592;28;20662;-83
2021/05/24 05:45:59;;;;;;;1.17;0.90;;;;;;;;;;5097341;28;20671;-84
2021/05/24 05:48:26;;;;;;;3.13;1.08;;;;;;;;;;5097632;28;20284;-83
2021/05/24 05:50:52;;;;;;;1.90;1.73;;;;;;;;;;5098303;28;20204;-84
2021/05/24 05:53:19;;;;;;;1.17;1.08;;;;;;;;;;5096693;28;20204;-84
2021/05/24 05:55:47;;;;;;;1.60;1.10;;;;;;;;;;5097567;28;20196;-83
2021/05/24 05:58:14;;;;;;;1.35;1.23;;;;;;;;;;5097652;28;20295;-84
2021/05/24 06:00:41;;;;;;;2.10;0.93;;;;;;;;;;5097576;28;20207;-84
2021/05/24 06:03:09;;;;;;;2.20;1.02;;;;;;;;;;5097484;28;20207;-85
2021/05/24 06:05:36;;;;;;;1.30;1.20;;;;;;;;;;5099159;28;20201;-84
2021/05/24 06:08:03;;;;;;;1.52;1.35;;;;;;;;;;5101836;28;20212;-84
2021/05/24 06:10:31;;;;;;;1.80;1.00;;;;;;;;;;5102495;28;20196;-84
2021/05/24 06:12:58;;;;;;;1.83;1.40;;;;;;;;;;5101688;28;20200;-84
2021/05/24 06:15:25;;;;;;;2.08;1.27;;;;;;;;;;5101151;28;20204;-85
2021/05/24 06:17:52;;;;;;;1.30;1.20;;;;;;;;;;5102691;28;20231;-84
2021/05/24 06:20:19;;;;;;;1.48;1.38;;;;;;;;;;5101870;28;20642;-84
2021/05/24 06:22:46;;;;;;;1.20;1.10;;;;;;;;;;5101046;28;20197;-85
2021/05/24 06:25:13;;;;;;;1.33;1.23;;;;;;;;;;5101527;28;20204;-85
2021/05/24 06:27:40;;;;;;;1.75;1.48;;;;;;;;;;5101476;28;20227;-84
2021/05/24 06:30:11;;;;;;;3.65;1.60;;;;;;;;;;5101261;28;20208;-84
2021/05/24 06:32:38;;;;;;;2.40;1.17;;;;;;;;;;5101411;28;20366;-84
2021/05/24 06:35:07;;;;;;;2.05;1.20;;;;;;;;;;5101805;28;20204;-86
2021/05/24 06:37:34;;;;;;;1.67;1.50;;;;;;;;;;5101103;28;20224;-84
2021/05/24 06:40:01;;;;;;;1.95;1.17;;;;;;;;;;5100304;28;20200;-84
2021/05/24 06:42:27;;;;;;;3.45;1.27;;;;;;;;;;5100455;28;20200;-84
2021/05/24 06:44:55;;;;;;;2.08;1.27;;;;;;;;;;5099282;28;20200;-84
2021/05/24 06:47:23;;;;;;;3.47;1.20;;;;;;;;;;5099366;28;20224;-83
2021/05/24 06:49:50;;;;;;;0.88;0.88;;;;;;;;;;5100552;28;20266;-84
2021/05/24 06:52:17;;;;;;;1.60;1.20;;;;;;;;;;5100695;28;20279;-83
2021/05/24 06:54:44;;;;;;;3.42;2.15;;;;;;;;;;5100450;28;20204;-84
2021/05/24 06:57:11;;;;;;;1.10;1.00;;;;;;;;;;5100990;28;20235;-84
2021/05/24 06:59:38;;;;;;;0.88;0.88;;;;;;;;;;5100312;28;20208;-84
2021/05/24 07:02:06;;;;;;;3.88;1.20;;;;;;;;;;5100086;28;20204;-84
2021/05/24 07:04:33;;;;;;;1.60;1.50;;;;;;;;;;5100503;28;20246;-84
2021/05/24 07:07:00;;;;;;;0.80;0.80;;;;;;;;;;5101024;28;20222;-84
2021/05/24 07:09:27;;;;;;;2.03;1.30;;;;;;;;;;5100121;28;20215;-83
2021/05/24 07:11:54;;;;;;;2.75;1.30;;;;;;;;;;5099879;28;20196;-84
2021/05/24 07:14:20;;;;;;;1.23;0.93;;;;;;;;;;5100195;28;20744;-84
2021/05/24 07:16:49;;;;;;;1.20;1.10;;;;;;;;;;5099824;28;20228;-84
2021/05/24 07:19:16;;;;;;;1.33;1.23;;;;;;;;;;5100864;28;20197;-84
2021/05/24 07:21:43;;;;;;;1.42;1.23;;;;;;;;;;5099866;28;20204;-84
2021/05/24 07:24:11;;;;;;;1.23;1.13;;;;;;;;;;5099109;28;20561;-84
2021/05/24 07:26:37;;;;;;;1.88;1.10;;;;;;;;;;5099941;28;20220;-84
2021/05/24 07:29:04;;;;;;;1.15;1.00;;;;;;;;;;5098738;28;20201;-85
2021/05/24 07:31:31;;;;;;;1.77;1.10;;;;;;;;;;5099413;28;20231;-84
2021/05/24 07:33:58;;;;;;;4.68;1.65;;;;;;;;;;5098645;28;20203;-84
2021/05/24 07:36:25;;;;;;;1.30;1.10;;;;;;;;;;5098977;28;20223;-85
2021/05/24 07:38:53;;;;;;;1.05;1.00;;;;;;;;;;5099189;28;20263;-84
2021/05/24 07:41:19;;;;;;;4.53;1.80;;;;;;;;;;5098295;28;20207;-84
2021/05/24 07:43:46;;;;;;;2.53;1.58;;;;;;;;;;5098085;28;20200;-84
2021/05/24 07:46:13;;;;;;;1.50;1.33;;;;;;;;;;5098238;28;20208;-85
2021/05/24 07:48:40;;;;;;;1.20;1.10;;;;;;;;;;5098206;28;20730;-83
2021/05/24 07:51:07;;;;;;;1.20;1.10;;;;;;;;;;5098456;28;20184;-83
2021/05/24 07:53:34;;;;;;;1.90;1.30;;;;;;;;;;5099112;28;20561;-85
2021/05/24 07:56:01;;;;;;;1.67;1.05;;;;;;;;;;5097356;28;20208;-83
2021/05/24 07:58:31;;;;;;;1.55;1.45;;;;;;;;;;5097813;28;20224;-84
2021/05/24 08:00:57;;;;;;;1.77;1.20;;;;;;;;;;5097781;28;20200;-83
2021/05/24 08:03:24;;;;;;;1.05;0.98;;;;;;;;;;5097454;28;20227;-83
2021/05/24 08:05:52;;;;;;;0.80;0.80;;;;;;;;;;5097065;28;20220;-83
2021/05/24 08:08:20;;;;;;;0.85;0.85;;;;;;;;;;5096764;28;20220;-84
2021/05/24 08:10:47;;;;;;;0.88;0.88;;;;;;;;;;5098702;28;20226;-84
2021/05/24 08:13:17;;;;;;;1.88;1.10;;;;;;;;;;5098988;28;20565;-84
2021/05/24 08:15:47;;;;;;;0.95;0.80;;;;;;;;;;5097047;28;20184;-84
2021/05/24 08:18:15;;;;;;;1.25;0.90;;;;;;;;;;5096364;28;20227;-84
2021/05/24 08:20:41;;;;;;;0.80;0.80;;;;;;;;;;5098647;28;20204;-84
2021/05/24 08:23:08;;;;;;;0.90;0.90;;;;;;;;;;5098494;28;20569;-84
2021/05/24 08:25:35;;;;;;;0.80;0.80;;;;;;;;;;5098385;28;20203;-84
2021/05/24 08:28:05;;;;;;;1.13;0.70;;;;;;;;;;5097741;28;20224;-84
2021/05/24 08:30:34;;;;;;;3.10;0.95;;;;;;;;;;5098050;28;20207;-82
2021/05/24 08:33:01;;;;;;;0.80;0.80;;;;;;;;;;5098050;28;20220;-82
2021/05/24 08:35:28;;;;;;;1.08;1.08;;;;;;;;;;5097965;28;20212;-83
2021/05/24 08:37:55;;;;;;;1.67;1.13;;;;;;;;;;5098028;28;20595;-83
2021/05/24 08:40:22;;;;;;;0.73;0.73;;;;;;;;;;5098788;28;20313;-83
2021/05/24 08:42:50;;;;;;;1.10;1.00;;;;;;;;;;5099914;28;20204;-83
2021/05/24 08:45:17;;;;;;;1.33;0.95;;;;;;;;;;5098055;28;20192;-82
2021/05/24 08:47:45;;;;;;;0.80;0.80;;;;;;;;;;5097248;28;20254;-83
2021/05/24 08:50:14;;;;;;;1.85;0.82;;;;;;;;;;5096493;28;20196;-83
2021/05/24 08:52:42;;;;;;;0.77;0.77;;;;;;;;;;5094098;28;20204;-82
2021/05/24 08:55:11;;;;;;;2.60;1.08;;;;;;;;;;5096206;28;20196;-82
2021/05/24 08:57:44;;;;;;;0.70;0.70;;;;;;;;;;5095091;28;20273;-83
2021/05/24 09:00:18;;;;;;;1.35;0.80;;;;;;;;;;5095576;28;20200;-82
2021/05/24 09:02:49;;;;;;;1.30;1.00;;;;;;;;;;5095136;28;20250;-82
2021/05/24 09:05:30;;;;;;;1.05;1.05;;;;;;;;;;5095930;28;20188;-84
2021/05/24 09:07:59;;;;;;;2.15;1.50;;;;;;;;;;5095852;28;20228;-84
2021/05/24 09:10:29;;;;;;;1.13;0.95;;;;;;;;;;5095915;28;20219;-83
2021/05/24 09:12:57;;;;;;;1.02;0.90;;;;;;;;;;5095610;28;20207;-84
2021/05/24 09:15:26;;;;;;;1.67;0.80;;;;;;;;;;5095786;28;20255;-83
2021/05/24 09:17:57;;;;;;;1.65;1.02;;;;;;;;;;5095424;28;20593;-83
2021/05/24 09:20:35;;;;;;;2.60;1.10;;;;;;;;;;5095003;28;20215;-83
2021/05/24 09:23:15;;;;;;;1.13;0.85;;;;;;;;;;5095485;28;20196;-81
2021/05/24 09:25:50;;;;;;;0.70;0.70;;;;;;;;;;5096410;28;20330;-83
2021/05/24 09:28:43;;;;;;;2.35;0.95;;;;;;;;;;5096755;28;20219;-84
2021/05/24 09:31:14;;;;;;;1.40;0.85;;;;;;;;;;5096760;28;20204;-84
2021/05/24 09:33:43;;;;;;;0.80;0.80;;;;;;;;;;5097620;28;20200;-83
2021/05/24 09:36:11;;;;;;;1.42;1.33;;;;;;;;;;5095662;28;20184;-83
2021/05/24 09:38:41;;;;;;;1.13;0.80;;;;;;;;;;5094644;28;20224;-81
2021/05/24 09:41:10;;;;;;;2.15;0.90;;;;;;;;;;5094603;28;20205;-82
2021/05/24 09:43:39;;;;;;;2.47;0.70;;;;;;;;;;5095484;28;20204;-82
2021/05/24 09:46:18;;;;;;;2.75;0.73;;;;;;;;;;5095723;28;20204;-81
2021/05/24 09:48:50;;;;;;;0.95;0.65;;;;;;;;;;5095482;28;20227;-81
2021/05/24 09:51:20;;;;;;;2.53;1.20;;;;;;;;;;5075114;28;20200;-81
2021/05/24 09:54:01;;;;;;;2.63;0.63;;;;;;;;;;5073725;28;20630;-82
2021/05/24 09:56:29;;;;;;;0.85;0.75;;;;;;;;;;5074235;28;20326;-82
2021/05/24 09:59:05;;;;;;;0.88;0.80;;;;;;;;;;5073702;28;20228;-82
2021/05/24 10:01:38;;;;;;;0.82;0.80;;;;;;;;;;5074628;28;20196;-82
2021/05/24 10:04:07;;;;;;;1.27;0.95;;;;;;;;;;5078138;28;20818;-82
2021/05/24 10:06:34;;;;;;;0.70;0.70;;;;;;;;;;5074193;28;20201;-82
2021/05/24 10:09:04;;;;;;;0.90;0.90;;;;;;;;;;5074654;28;20546;-82
2021/05/24 10:11:32;;;;;;;0.98;0.80;;;;;;;;;;5095730;28;20196;-82
2021/05/24 10:13:59;;;;;;;1.05;0.80;;;;;;;;;;5093057;28;20261;-82
2021/05/24 10:16:31;;;;;;;0.88;0.80;;;;;;;;;;5094383;28;20719;-82
2021/05/24 10:18:58;;;;;;;0.60;0.60;;;;;;;;;;5094354;28;20274;-83
2021/05/24 10:21:26;;;;;;;0.70;0.70;;;;;;;;;;5094279;28;20204;-82
2021/05/24 10:23:54;;;;;;;0.60;0.60;;;;;;;;;;5093334;28;20249;-82
2021/05/24 10:26:22;;;;;;;0.77;0.77;;;;;;;;;;5092033;28;20208;-82
2021/05/24 10:28:50;;;;;;;0.50;0.50;;;;;;;;;;5092089;28;20551;-82
2021/05/24 10:31:20;;;;;;;0.90;0.90;;;;;;;;;;5094645;28;20196;-82
2021/05/24 10:33:48;;;;;;;0.80;0.80;;;;;;;;;;5094539;28;20216;-83
2021/05/24 10:36:18;;;;;;;0.68;0.68;;;;;;;;;;5094436;28;20659;-83
2021/05/24 10:39:11;;;;;;;0.85;0.60;;;;;;;;;;5094560;28;20216;-83
2021/05/24 10:41:47;;;;;;;1.70;0.70;;;;;;;;;;5094538;28;20201;-83
2021/05/24 10:44:17;;;;;;;1.88;0.70;;;;;;;;;;5094993;28;20210;-84
2021/05/24 10:46:44;;;;;;;1.00;0.88;;;;;;;;;;5094650;28;20228;-83
2021/05/24 10:49:24;;;;;;;0.80;0.80;;;;;;;;;;5093469;28;20663;-82
2021/05/24 10:52:01;;;;;;;0.95;0.90;;;;;;;;;;5094977;28;20253;-83
2021/05/24 10:54:37;;;;;;;1.05;0.80;;;;;;;;;;5098565;28;20200;-82
2021/05/24 10:57:18;;;;;;;0.70;0.70;;;;;;;;;;5098336;28;20216;-83
2021/05/24 11:00:18;;;;;;;1.13;1.00;;;;;;;;;;5098003;28;20220;-82
2021/05/24 11:02:52;;;;;;;1.25;0.60;;;;;;;;;;5096765;28;20204;-83
2021/05/24 11:05:29;;;;;;;1.10;0.70;;;;;;;;;;5097651;28;20237;-83
2021/05/24 11:07:59;;;;;;;1.58;1.10;;;;;;;;;;5097689;28;20220;-82
2021/05/24 11:10:30;;;;;;;1.08;0.95;;;;;;;;;;5098053;28;20662;-84
2021/05/24 11:13:28;;;;;;;1.55;0.90;;;;;;;;;;5100357;28;20200;-85
2021/05/24 11:16:11;;;;;;;0.75;0.75;;;;;;;;;;5098410;28;20196;-85
2021/05/24 11:18:41;;;;;;;0.80;0.80;;;;;;;;;;5098285;28;20286;-85
2021/05/24 11:21:27;;;;;;;1.42;0.90;;;;;;;;;;5099000;28;20202;-85
2021/05/24 11:26:41;;;;;;;2.03;0.82;;;;;;;;;;5088245;28;20219;-84
2021/05/24 11:29:13;;;;;;;0.85;0.68;;;;;;;;;;5098914;28;20208;-84
2021/05/24 11:31:52;;;;;;;1.30;0.90;;;;;;;;;;5099373;28;20642;-83
2021/05/24 11:34:43;;;;;;;0.70;0.70;;;;;;;;;;5100207;28;20718;-84
2021/05/24 11:37:10;;;;;;;2.17;1.25;;;;;;;;;;5084422;28;20235;-84
2021/05/24 11:39:40;;;;;;;0.98;0.88;;;;;;;;;;5099669;28;20223;-84
2021/05/24 11:42:19;;;;;;;2.55;1.00;;;;;;;;;;5100118;28;20641;-84
2021/05/24 11:44:47;;;;;;;0.85;0.85;;;;;;;;;;5098206;28;20204;-84
2021/05/24 11:47:19;;;;;;;0.75;0.75;;;;;;;;;;5098313;28;20218;-84
2021/05/24 11:49:48;;;;;;;1.33;1.10;;;;;;;;;;5098786;28;20196;-84
2021/05/24 11:52:17;;;;;;;0.70;0.60;;;;;;;;;;5097958;28;20204;-83
2021/05/24 11:54:48;;;;;;;0.80;0.80;;;;;;;;;;5098528;28;20211;-84
2021/05/24 11:57:18;;;;;;;1.88;1.45;;;;;;;;;;5098898;28;20231;-84
2021/05/24 11:59:46;;;;;;;1.88;0.90;;;;;;;;;;5098964;28;20297;-84
2021/05/24 12:02:13;;;;;;;2.90;1.17;;;;;;;;;;5099812;28;20196;-84
2021/05/24 12:04:45;;;;;;;1.63;1.20;;;;;;;;;;5098593;28;20196;-83
2021/05/24 12:07:14;;;;;;;1.45;0.90;;;;;;;;;;5098187;28;20693;-84
2021/05/24 12:09:42;;;;;;;2.88;0.95;;;;;;;;;;5098600;28;20257;-84
2021/05/24 12:12:12;;;;;;;4.90;1.10;;;;;;;;;;5098583;28;20187;-84
2021/05/24 12:14:43;;;;;;;0.95;0.73;;;;;;;;;;5098397;28;20212;-84
2021/05/24 12:17:12;;;;;;;1.85;0.75;;;;;;;;;;5099641;28;20220;-83
2021/05/24 12:19:42;;;;;;;0.98;0.82;;;;;;;;;;5099648;28;20220;-84
2021/05/24 12:22:12;;;;;;;2.67;0.82;;;;;;;;;;5098526;28;20193;-84
2021/05/24 12:24:41;;;;;;;0.93;0.93;;;;;;;;;;5098343;28;20204;-83
2021/05/24 12:27:09;;;;;;;2.20;0.90;;;;;;;;;;5098621;28;20281;-84
2021/05/24 12:30:10;;;;;;;1.75;0.85;;;;;;;;;;5098576;28;20197;-83
2021/05/24 12:32:39;;;;;;;1.40;0.65;;;;;;;;;;5098134;28;20224;-84
2021/05/24 12:35:09;;;;;;;0.80;0.80;;;;;;;;;;5098487;28;20569;-83
2021/05/24 12:37:41;;;;;;;0.80;0.80;;;;;;;;;;5098969;28;20221;-84
2021/05/24 12:40:11;;;;;;;0.50;0.50;;;;;;;;;;5098418;28;20588;-84
2021/05/24 12:42:39;;;;;;;0.75;0.75;;;;;;;;;;5098854;28;20667;-84
2021/05/24 12:45:10;;;;;;;0.63;0.63;;;;;;;;;;5099416;28;20193;-84
2021/05/24 12:47:36;;;;;;;1.30;0.70;;;;;;;;;;5099003;28;20702;-84
2021/05/24 12:50:10;;;;;;;0.70;0.70;;;;;;;;;;5098909;28;20196;-84
2021/05/24 12:52:37;;;;;;;0.90;0.90;;;;;;;;;;5099396;28;20336;-84
2021/05/24 12:55:11;;;;;;;1.05;0.95;;;;;;;;;;5099161;28;20570;-84
2021/05/24 12:57:41;;;;;;;0.75;0.75;;;;;;;;;;5097580;28;20246;-84
2021/05/24 13:00:11;;;;;;;0.95;0.90;;;;;;;;;;5098162;28;20231;-84
2021/05/24 13:02:38;;;;;;;0.80;0.80;;;;;;;;;;5096590;28;20270;-83
2021/05/24 13:05:13;;;;;;;1.08;1.08;;;;;;;;;;5096998;28;20201;-83
2021/05/24 13:07:47;;;;;;;0.63;0.63;;;;;;;;;;5098245;28;20223;-83
2021/05/24 13:10:15;;;;;;;0.68;0.68;;;;;;;;;;5098751;28;20191;-84
2021/05/24 13:12:45;;;;;;;1.38;0.80;;;;;;;;;;5098470;28;20200;-84
2021/05/24 13:15:15;;;;;;;0.68;0.68;;;;;;;;;;5097026;28;20712;-84
2021/05/24 13:17:51;;;;;;;0.52;0.52;;;;;;;;;;5097724;28;20220;-83
2021/05/24 13:26:18;;;;;;;0.88;0.82;;;;;;;;;;5096874;28;20603;-83
2021/05/24 13:28:55;;;;;;;0.70;0.70;;;;;;;;;;5093367;28;20204;-82
2021/05/24 13:31:28;;;;;;;1.35;0.70;;;;;;;;;;5092727;28;20196;-83
2021/05/24 13:33:56;;;;;;;2.20;0.90;;;;;;;;;;5093638;28;20226;-82
2021/05/24 13:36:25;;;;;;;0.73;0.70;;;;;;;;;;5096035;28;20234;-83
2021/05/24 13:39:12;;;;;;;1.95;1.02;;;;;;;;;;5098539;28;20207;-84
2021/05/24 13:41:40;;;;;;;2.25;0.80;;;;;;;;;;5098133;28;20693;-84
2021/05/24 13:44:10;;;;;;;0.85;0.73;;;;;;;;;;5097697;28;20769;-84
2021/05/24 13:46:38;;;;;;;2.83;1.23;;;;;;;;;;5097835;28;20196;-84
2021/05/24 13:49:05;;;;;;;0.80;0.80;;;;;;;;;;5097760;28;20196;-85
2021/05/24 13:51:33;;;;;;;1.10;1.00;;;;;;;;;;5097430;28;20681;-84
2021/05/24 13:54:00;;;;;;;1.25;0.60;;;;;;;;;;5097272;28;20659;-84
2021/05/24 13:56:27;;;;;;;0.82;0.80;;;;;;;;;;5097125;28;20200;-84
2021/05/24 13:58:54;;;;;;;0.50;0.50;;;;;;;;;;5096380;28;20203;-84
2021/05/24 14:01:22;;;;;;;0.55;0.55;;;;;;;;;;5096507;28;20204;-84
2021/05/24 14:03:49;;;;;;;1.23;0.88;;;;;;;;;;5097082;28;20199;-85
2021/05/24 14:06:17;;;;;;;0.70;0.70;;;;;;;;;;5097654;28;20580;-85
2021/05/24 14:08:45;;;;;;;2.35;1.42;;;;;;;;;;5097369;28;20200;-84
2021/05/24 14:11:13;;;;;;;1.23;0.68;;;;;;;;;;5097364;28;20728;-85
2021/05/24 14:13:41;;;;;;;0.70;0.70;;;;;;;;;;5096613;28;20192;-84
2021/05/24 14:16:12;;;;;;;1.08;0.70;;;;;;;;;;5097504;28;20234;-85
2021/05/24 14:18:39;;;;;;;1.20;0.90;;;;;;;;;;5096848;28;20220;-85
2021/05/24 14:21:08;;;;;;;1.00;0.82;;;;;;;;;;5094143;28;20223;-85
2021/05/24 14:23:35;;;;;;;0.75;0.75;;;;;;;;;;5076968;28;20201;-85
2021/05/24 14:26:02;;;;;;;0.63;0.63;;;;;;;;;;5077959;28;20201;-85
2021/05/24 14:28:29;;;;;;;1.50;0.80;;;;;;;;;;5080777;28;20217;-85
2021/05/24 14:30:59;;;;;;;3.05;0.70;;;;;;;;;;5081126;28;20197;-84
2021/05/24 14:33:26;;;;;;;0.90;0.90;;;;;;;;;;5080097;28;20290;-84
2021/05/24 14:35:53;;;;;;;0.90;0.90;;;;;;;;;;5080619;28;20231;-84
2021/05/24 14:38:20;;;;;;;0.98;0.70;;;;;;;;;;5080755;28;20220;-85
2021/05/24 14:40:47;;;;;;;0.88;0.57;;;;;;;;;;5080734;28;20689;-85
2021/05/24 14:43:14;;;;;;;2.10;1.38;;;;;;;;;;5080755;28;20667;-84
2021/05/24 14:45:41;;;;;;;0.47;0.47;;;;;;;;;;5081408;28;20204;-85
2021/05/24 14:48:09;;;;;;;0.80;0.80;;;;;;;;;;5080822;28;20221;-84
2021/05/24 14:50:44;;;;;;;0.75;0.70;;;;;;;;;;5081385;28;20201;-85
2021/05/24 14:53:13;;;;;;;0.80;0.80;;;;;;;;;;5080308;28;20212;-84
2021/05/24 14:55:41;;;;;;;11.88;2.28;;;;;;;;;;5080415;28;20204;-85
2021/05/24 14:58:08;;;;;;;0.65;0.65;;;;;;;;;;5079491;28;20597;-85
2021/05/24 15:00:35;;;;;;;1.65;0.80;;;;;;;;;;5080771;28;20710;-85
2021/05/24 15:03:02;;;;;;;0.70;0.70;;;;;;;;;;5079306;28;20225;-85